Time;durP1;ratioP1;P1;durP2;ratioP2;P2;SDS_P1;SDS_P2;PMS_P1;PMS_P2;Temp;Humidity;BMP_temperature;BMP_pressure;BME280_temperature;BME280_humidity;BME280_pressure;Samples;Min_cycle;Max_cycle;Signal;HPM_P1;HPM_P2
2023/08/10 00:00:48;;;;;;;6.80;4.43;;;;;;;;;;5048301;28;20083;-78
2023/08/10 00:03:15;;;;;;;6.28;4.65;;;;;;;;;;5047117;28;20054;-78
2023/08/10 00:05:43;;;;;;;10.23;4.70;;;;;;;;;;5048306;28;20530;-78
2023/08/10 00:08:11;;;;;;;9.18;4.72;;;;;;;;;;5048437;28;20047;-77
2023/08/10 00:10:38;;;;;;;8.38;5.13;;;;;;;;;;5048429;28;20037;-78
2023/08/10 00:13:06;;;;;;;8.20;5.50;;;;;;;;;;5048154;28;20568;-79
2023/08/10 00:15:33;;;;;;;11.45;5.20;;;;;;;;;;5047725;28;20406;-76
2023/08/10 00:18:00;;;;;;;7.95;5.15;;;;;;;;;;5048118;28;20099;-78
2023/08/10 00:20:28;;;;;;;13.90;5.22;;;;;;;;;;5035240;28;20419;-78
2023/08/10 00:22:56;;;;;;;7.90;5.47;;;;;;;;;;5048284;28;20107;-76
2023/08/10 00:25:23;;;;;;;10.27;5.32;;;;;;;;;;5047543;28;20494;-77
2023/08/10 00:27:50;;;;;;;11.80;5.60;;;;;;;;;;5048649;28;20114;-78
2023/08/10 00:30:19;;;;;;;11.75;5.60;;;;;;;;;;5042743;28;20443;-77
2023/08/10 00:32:47;;;;;;;9.23;5.45;;;;;;;;;;5047794;28;20049;-77
2023/08/10 00:35:14;;;;;;;12.57;5.60;;;;;;;;;;5040470;28;20053;-77
2023/08/10 00:37:42;;;;;;;8.43;5.30;;;;;;;;;;5050415;28;20155;-77
2023/08/10 00:40:12;;;;;;;10.25;5.50;;;;;;;;;;5031455;28;20052;-78
2023/08/10 00:42:40;;;;;;;9.32;5.07;;;;;;;;;;5047974;28;20045;-77
2023/08/10 00:45:08;;;;;;;8.98;5.47;;;;;;;;;;5047363;28;20448;-79
2023/08/10 00:47:36;;;;;;;10.93;5.57;;;;;;;;;;5047648;28;20037;-78
2023/08/10 00:50:04;;;;;;;12.40;5.20;;;;;;;;;;5047433;28;20041;-77
2023/08/10 00:52:33;;;;;;;8.00;5.18;;;;;;;;;;5047488;28;20110;-79
2023/08/10 00:55:02;;;;;;;10.13;5.70;;;;;;;;;;5039087;28;20080;-76
2023/08/10 00:57:33;;;;;;;11.50;5.78;;;;;;;;;;5054190;23;20128;31
2023/08/10 01:00:01;;;;;;;15.20;6.40;;;;;;;;;;4967659;28;20049;-77
2023/08/10 01:02:30;;;;;;;14.90;6.57;;;;;;;;;;4987347;28;20049;-78
2023/08/10 01:04:57;;;;;;;13.65;6.28;;;;;;;;;;4987460;28;20522;-78
2023/08/10 01:07:24;;;;;;;14.95;6.65;;;;;;;;;;5003023;28;20120;-78
2023/08/10 01:09:56;;;;;;;13.80;7.03;;;;;;;;;;5002327;28;20511;-77
2023/08/10 01:12:37;;;;;;;14.18;6.45;;;;;;;;;;4986636;28;20097;-78
2023/08/10 01:15:13;;;;;;;13.55;7.03;;;;;;;;;;5002899;28;20046;-78
2023/08/10 01:17:43;;;;;;;18.42;6.88;;;;;;;;;;4979939;28;20054;-78
2023/08/10 01:20:12;;;;;;;13.52;6.78;;;;;;;;;;5002823;28;20046;-78
2023/08/10 01:23:01;;;;;;;15.45;6.75;;;;;;;;;;4986865;28;20355;-78
2023/08/10 01:25:29;;;;;;;13.70;6.78;;;;;;;;;;4990965;28;20054;-78
2023/08/10 01:27:56;;;;;;;15.23;7.30;;;;;;;;;;4979682;28;20077;-78
2023/08/10 01:30:24;;;;;;;11.55;6.22;;;;;;;;;;4970603;28;20053;-78
2023/08/10 01:32:52;;;;;;;11.93;5.97;;;;;;;;;;4984079;28;20467;-77
2023/08/10 01:35:20;;;;;;;11.00;6.28;;;;;;;;;;4974835;28;20137;-77
2023/08/10 01:37:48;;;;;;;12.18;6.32;;;;;;;;;;4978564;28;20058;-78
2023/08/10 01:40:16;;;;;;;12.15;6.20;;;;;;;;;;4986145;28;20510;-78
2023/08/10 01:42:44;;;;;;;10.60;6.03;;;;;;;;;;4987059;28;20050;-78
2023/08/10 01:45:12;;;;;;;11.07;5.70;;;;;;;;;;4996530;28;20043;-77
2023/08/10 01:47:40;;;;;;;13.40;6.53;;;;;;;;;;4985610;28;20077;-78
2023/08/10 01:50:08;;;;;;;15.20;6.72;;;;;;;;;;4976099;28;20105;-77
2023/08/10 01:52:43;;;;;;;12.32;6.70;;;;;;;;;;4983433;28;20416;-77
2023/08/10 01:55:11;;;;;;;11.63;6.50;;;;;;;;;;4988152;28;20055;-77
2023/08/10 01:57:39;;;;;;;13.05;6.68;;;;;;;;;;4994047;28;20046;-78
2023/08/10 02:00:07;;;;;;;11.98;6.97;;;;;;;;;;4985986;28;20077;-78
2023/08/10 02:02:41;;;;;;;13.02;7.07;;;;;;;;;;4986114;28;20090;-78
2023/08/10 02:05:12;;;;;;;11.80;7.25;;;;;;;;;;4995528;28;20046;-78
2023/08/10 02:07:41;;;;;;;9.73;7.15;;;;;;;;;;4985047;28;20047;-78
2023/08/10 02:10:10;;;;;;;11.55;6.57;;;;;;;;;;4980630;28;20439;-78
2023/08/10 02:12:37;;;;;;;16.90;7.07;;;;;;;;;;4979372;28;20152;-78
2023/08/10 02:15:05;;;;;;;13.07;6.28;;;;;;;;;;4982557;28;20047;-78
2023/08/10 02:17:35;;;;;;;17.30;6.95;;;;;;;;;;4981924;28;20114;-77
2023/08/10 02:20:13;;;;;;;15.25;6.63;;;;;;;;;;4979213;28;20058;-78
2023/08/10 02:22:49;;;;;;;11.85;6.85;;;;;;;;;;4980432;28;20051;-78
2023/08/10 02:25:17;;;;;;;16.15;7.80;;;;;;;;;;4981501;28;20073;-78
2023/08/10 02:27:46;;;;;;;18.77;7.35;;;;;;;;;;4997644;28;20055;-78
2023/08/10 02:30:15;;;;;;;13.10;7.10;;;;;;;;;;4984058;28;20055;-77
2023/08/10 02:32:43;;;;;;;15.88;7.28;;;;;;;;;;4979773;28;20531;-77
2023/08/10 02:35:10;;;;;;;15.50;6.90;;;;;;;;;;4985125;28;20051;-77
2023/08/10 02:37:37;;;;;;;13.40;7.13;;;;;;;;;;4994155;28;20078;-78
2023/08/10 02:40:07;;;;;;;12.00;6.63;;;;;;;;;;4986638;28;20054;-78
2023/08/10 02:42:34;;;;;;;7.90;6.10;;;;;;;;;;4986462;28;20047;-77
2023/08/10 02:45:02;;;;;;;13.40;7.03;;;;;;;;;;4988788;28;20519;-77
2023/08/10 02:47:30;;;;;;;11.07;7.45;;;;;;;;;;4982738;28;20069;-78
2023/08/10 02:49:57;;;;;;;15.40;7.93;;;;;;;;;;4984304;28;20046;-77
2023/08/10 02:52:25;;;;;;;12.93;7.22;;;;;;;;;;4991178;28;20132;-78
2023/08/10 02:54:52;;;;;;;11.55;6.97;;;;;;;;;;4982108;28;20178;-78
2023/08/10 02:57:20;;;;;;;14.93;7.40;;;;;;;;;;4977288;28;20058;-77
2023/08/10 02:59:47;;;;;;;15.95;10.43;;;;;;;;;;4979061;28;20514;-78
2023/08/10 03:02:17;;;;;;;13.88;8.98;;;;;;;;;;4980748;28;20054;-78
2023/08/10 03:04:46;;;;;;;17.70;10.23;;;;;;;;;;4996869;28;20718;-77
2023/08/10 03:07:14;;;;;;;10.60;8.13;;;;;;;;;;4989011;28;20051;-78
2023/08/10 03:09:42;;;;;;;11.90;7.55;;;;;;;;;;4988081;28;20518;-77
2023/08/10 03:12:12;;;;;;;10.53;7.40;;;;;;;;;;4998082;28;20149;-78
2023/08/10 03:14:40;;;;;;;12.25;7.43;;;;;;;;;;4980817;28;20058;-77
2023/08/10 03:17:07;;;;;;;15.15;8.05;;;;;;;;;;4974516;28;20054;-77
2023/08/10 03:19:35;;;;;;;17.13;7.97;;;;;;;;;;4989822;28;20748;-77
2023/08/10 03:22:02;;;;;;;13.77;7.25;;;;;;;;;;5004740;28;20050;-78
2023/08/10 03:24:30;;;;;;;24.35;8.95;;;;;;;;;;5003596;28;20049;-78
2023/08/10 03:26:58;;;;;;;18.83;9.32;;;;;;;;;;4987535;28;20492;-77
2023/08/10 03:29:26;;;;;;;17.40;9.30;;;;;;;;;;4976018;28;20100;-78
2023/08/10 03:31:54;;;;;;;19.25;9.23;;;;;;;;;;4996054;28;20368;-78
2023/08/10 03:34:22;;;;;;;19.58;9.38;;;;;;;;;;4998987;28;20053;-78
2023/08/10 03:36:49;;;;;;;22.95;9.43;;;;;;;;;;5001995;28;20358;-78
2023/08/10 03:39:17;;;;;;;18.58;9.82;;;;;;;;;;4995821;28;20060;-78
2023/08/10 03:41:44;;;;;;;16.25;9.48;;;;;;;;;;4996620;28;20563;-78
2023/08/10 03:44:11;;;;;;;13.55;9.57;;;;;;;;;;4997018;28;20054;-78
2023/08/10 03:46:39;;;;;;;14.80;9.60;;;;;;;;;;4990144;28;20556;-78
2023/08/10 03:49:06;;;;;;;22.38;10.20;;;;;;;;;;4980646;28;20050;-78
2023/08/10 03:51:34;;;;;;;21.15;10.00;;;;;;;;;;4988085;28;20567;-79
2023/08/10 03:54:02;;;;;;;16.73;9.05;;;;;;;;;;4981647;28;20054;-77
2023/08/10 03:56:29;;;;;;;22.90;10.65;;;;;;;;;;4989275;28;20050;-77
2023/08/10 03:58:56;;;;;;;16.95;10.13;;;;;;;;;;4979551;28;20054;-77
2023/08/10 04:01:24;;;;;;;19.95;10.13;;;;;;;;;;4983482;28;20058;-79
2023/08/10 04:03:52;;;;;;;23.08;10.00;;;;;;;;;;4992796;28;20049;-78
2023/08/10 04:06:19;;;;;;;25.83;10.32;;;;;;;;;;4997478;28;20517;-78
2023/08/10 04:08:47;;;;;;;25.10;11.10;;;;;;;;;;5004035;28;20050;-78
2023/08/10 04:11:15;;;;;;;21.33;10.55;;;;;;;;;;5003630;28;20054;-78
2023/08/10 04:13:42;;;;;;;16.33;9.70;;;;;;;;;;4988973;28;20479;-78
2023/08/10 04:16:10;;;;;;;23.05;10.73;;;;;;;;;;4981239;28;20050;-78
2023/08/10 04:18:38;;;;;;;19.50;11.25;;;;;;;;;;4987112;28;20065;-78
2023/08/10 04:21:06;;;;;;;21.60;11.38;;;;;;;;;;4988972;28;20046;-78
2023/08/10 04:23:34;;;;;;;20.10;11.55;;;;;;;;;;4989650;28;20046;-77
2023/08/10 04:26:01;;;;;;;19.67;11.50;;;;;;;;;;4978506;28;20129;-77
2023/08/10 04:28:30;;;;;;;11.63;8.75;;;;;;;;;;4992372;28;20130;-78
2023/08/10 04:30:57;;;;;;;27.48;12.02;;;;;;;;;;4978793;28;20459;-78
2023/08/10 04:33:25;;;;;;;19.05;10.80;;;;;;;;;;5004261;28;20460;-77
2023/08/10 04:35:52;;;;;;;19.98;10.82;;;;;;;;;;4987049;28;20125;-78
2023/08/10 04:38:20;;;;;;;14.77;10.60;;;;;;;;;;4993200;28;20059;-77
2023/08/10 04:40:48;;;;;;;15.27;10.48;;;;;;;;;;4976972;28;20081;-77
2023/08/10 04:43:15;;;;;;;15.57;9.50;;;;;;;;;;4980523;28;20113;-78
2023/08/10 04:45:42;;;;;;;21.98;10.45;;;;;;;;;;4972776;28;20464;-78
2023/08/10 04:48:11;;;;;;;16.30;10.50;;;;;;;;;;4972328;28;20467;-78
2023/08/10 04:50:39;;;;;;;13.45;9.48;;;;;;;;;;4980297;28;20532;-79
2023/08/10 04:53:06;;;;;;;17.45;10.18;;;;;;;;;;4979980;28;20050;-78
2023/08/10 04:55:33;;;;;;;14.38;10.75;;;;;;;;;;4988380;28;20486;-78
2023/08/10 04:58:01;;;;;;;18.60;10.85;;;;;;;;;;4977101;28;20094;-78
2023/08/10 05:00:28;;;;;;;19.02;10.43;;;;;;;;;;4976402;28;20126;-78
2023/08/10 05:02:56;;;;;;;15.52;10.13;;;;;;;;;;4984951;28;20046;-75
2023/08/10 05:05:23;;;;;;;17.67;10.70;;;;;;;;;;4981246;28;20085;-77
2023/08/10 05:07:51;;;;;;;10.27;9.18;;;;;;;;;;4988496;28;20042;-76
2023/08/10 05:10:18;;;;;;;14.65;10.10;;;;;;;;;;4979765;28;20050;-77
2023/08/10 05:12:46;;;;;;;14.85;10.15;;;;;;;;;;4979943;28;20054;-77
2023/08/10 05:15:14;;;;;;;12.80;9.15;;;;;;;;;;4980663;28;20421;-78
2023/08/10 05:17:42;;;;;;;14.25;10.07;;;;;;;;;;4980288;28;20050;-77
2023/08/10 05:20:12;;;;;;;12.57;9.48;;;;;;;;;;4969375;28;20062;-78
2023/08/10 05:22:41;;;;;;;16.98;10.55;;;;;;;;;;4983315;28;20050;-78
2023/08/10 05:25:10;;;;;;;15.90;10.95;;;;;;;;;;4978972;28;20047;-78
2023/08/10 05:27:38;;;;;;;15.48;9.95;;;;;;;;;;4981680;28;20050;-77
2023/08/10 05:30:08;;;;;;;17.67;10.13;;;;;;;;;;4976759;28;20058;-78
2023/08/10 05:32:39;;;;;;;14.80;9.50;;;;;;;;;;4974585;28;20447;-78
2023/08/10 05:35:08;;;;;;;18.80;9.80;;;;;;;;;;4987921;28;20080;-78
2023/08/10 05:37:36;;;;;;;14.68;9.65;;;;;;;;;;4979599;28;20081;-78
2023/08/10 05:40:09;;;;;;;17.88;10.07;;;;;;;;;;4973096;28;20050;-77
2023/08/10 05:42:37;;;;;;;16.05;10.57;;;;;;;;;;4978111;28;20058;-77
2023/08/10 05:45:08;;;;;;;18.33;10.27;;;;;;;;;;4985778;28;20055;-77
2023/08/10 05:47:36;;;;;;;22.38;10.55;;;;;;;;;;4987114;28;20050;-78
2023/08/10 05:50:04;;;;;;;17.38;10.18;;;;;;;;;;4989276;28;20042;-77
2023/08/10 05:52:32;;;;;;;16.30;10.30;;;;;;;;;;4980554;28;20047;-78
2023/08/10 05:55:00;;;;;;;19.52;11.30;;;;;;;;;;4981698;28;20054;-77
2023/08/10 05:57:27;;;;;;;13.35;9.35;;;;;;;;;;4992231;28;20050;-78
2023/08/10 05:59:55;;;;;;;14.18;9.48;;;;;;;;;;4987066;28;20448;-78
2023/08/10 06:02:23;;;;;;;15.77;10.57;;;;;;;;;;4984162;28;20066;-77
2023/08/10 06:04:50;;;;;;;13.55;9.20;;;;;;;;;;4975841;28;20054;-78
2023/08/10 06:07:18;;;;;;;13.60;9.00;;;;;;;;;;4998361;28;20046;-77
2023/08/10 06:09:45;;;;;;;10.00;7.55;;;;;;;;;;4983205;28;20129;-78
2023/08/10 06:12:12;;;;;;;10.30;7.40;;;;;;;;;;4983005;28;20125;-78
2023/08/10 06:14:40;;;;;;;9.20;7.22;;;;;;;;;;4985000;28;20559;-78
2023/08/10 06:17:07;;;;;;;11.27;7.90;;;;;;;;;;4982015;28;20062;-78
2023/08/10 06:19:34;;;;;;;13.18;7.70;;;;;;;;;;4983569;28;20551;-78
2023/08/10 06:22:02;;;;;;;12.90;7.50;;;;;;;;;;4991009;28;20527;-78
2023/08/10 06:24:31;;;;;;;9.65;6.88;;;;;;;;;;4990429;28;20055;-77
2023/08/10 06:26:59;;;;;;;9.98;6.88;;;;;;;;;;4983858;28;20042;-78
2023/08/10 06:29:27;;;;;;;9.25;7.35;;;;;;;;;;4979185;28;20105;-77
2023/08/10 06:31:54;;;;;;;10.88;7.68;;;;;;;;;;4986823;28;20463;-77
2023/08/10 06:34:22;;;;;;;8.48;6.53;;;;;;;;;;4975995;28;20046;-78
2023/08/10 06:36:49;;;;;;;7.18;6.57;;;;;;;;;;4982728;28;20157;-77
2023/08/10 06:39:18;;;;;;;8.77;6.85;;;;;;;;;;4981636;28;20174;-77
2023/08/10 06:41:46;;;;;;;9.40;7.07;;;;;;;;;;4984607;28;20051;-79
2023/08/10 06:44:13;;;;;;;11.55;7.90;;;;;;;;;;4979889;28;20499;-78
2023/08/10 06:46:41;;;;;;;11.70;8.25;;;;;;;;;;4985276;28;20332;-77
2023/08/10 06:49:08;;;;;;;11.57;8.68;;;;;;;;;;4982304;28;20050;-77
2023/08/10 06:51:35;;;;;;;11.48;9.20;;;;;;;;;;4990206;28;20050;-77
2023/08/10 06:54:03;;;;;;;11.82;9.32;;;;;;;;;;4990259;28;20765;-78
2023/08/10 06:56:30;;;;;;;9.75;8.05;;;;;;;;;;4977008;28;20061;-77
2023/08/10 06:59:05;;;;;;;9.57;8.18;;;;;;;;;;5067461;23;20735;-85
2023/08/10 07:01:50;;;;;;;;;;;;;;;;;;5072080;28;20044;-87
2023/08/10 07:04:43;;;;;;;9.38;8.38;;;;;;;;;;5070386;28;19986;-86
2023/08/10 07:07:37;;;;;;;9.30;8.30;;;;;;;;;;5055644;28;20047;-86
2023/08/10 07:10:24;;;;;;;9.25;8.27;;;;;;;;;;5053572;28;20131;-87
2023/08/10 07:13:12;;;;;;;9.82;8.57;;;;;;;;;;5052576;28;20055;-87
2023/08/10 07:15:55;;;;;;;8.43;7.50;;;;;;;;;;5066655;28;20072;-87
2023/08/10 07:30:05;;;;;;;6.90;6.30;;;;;;;;;;5061327;22;20041;-77
2023/08/10 07:32:33;;;;;;;7.53;6.72;;;;;;;;;;5047907;28;20138;-78
2023/08/10 07:35:01;;;;;;;8.20;7.40;;;;;;;;;;5028621;28;20057;-79
2023/08/10 07:37:28;;;;;;;8.38;7.50;;;;;;;;;;5048719;28;20115;-80
2023/08/10 07:39:56;;;;;;;8.65;6.53;;;;;;;;;;5047754;28;20126;-78
2023/08/10 07:42:23;;;;;;;6.82;6.22;;;;;;;;;;5047864;28;20044;-77
2023/08/10 07:44:51;;;;;;;8.63;6.65;;;;;;;;;;5039649;28;20099;-80
2023/08/10 07:47:18;;;;;;;7.28;6.68;;;;;;;;;;5013613;28;20485;-78
2023/08/10 07:49:46;;;;;;;7.32;6.70;;;;;;;;;;5047630;28;20037;-79
2023/08/10 07:56:08;;;;;;;5.85;5.45;;;;;;;;;;5044432;28;20057;-77
2023/08/10 07:58:35;;;;;;;6.20;5.60;;;;;;;;;;5044964;28;20060;-81
2023/08/10 08:01:03;;;;;;;10.55;5.97;;;;;;;;;;5046262;28;20057;-77
2023/08/10 08:03:30;;;;;;;6.40;5.60;;;;;;;;;;5047453;28;20107;-77
2023/08/10 08:05:58;;;;;;;5.45;4.95;;;;;;;;;;5046320;28;20053;-80
2023/08/10 08:08:28;;;;;;;4.28;3.97;;;;;;;;;;5046987;28;20056;-79
2023/08/10 08:10:58;;;;;;;5.10;4.50;;;;;;;;;;5045922;28;20045;-77
2023/08/10 08:13:25;;;;;;;3.70;3.50;;;;;;;;;;5028975;28;20120;-80
2023/08/10 08:15:53;;;;;;;4.50;3.90;;;;;;;;;;5046726;28;20490;-80
2023/08/10 08:18:39;;;;;;;4.10;3.83;;;;;;;;;;5046801;28;20049;-83
2023/08/10 08:21:08;;;;;;;3.88;3.58;;;;;;;;;;5016624;28;20049;-80
2023/08/10 08:23:35;;;;;;;3.60;3.40;;;;;;;;;;5028082;28;20077;-80
2023/08/10 08:26:03;;;;;;;3.70;3.38;;;;;;;;;;5038909;28;20491;-77
2023/08/10 08:28:30;;;;;;;6.38;3.45;;;;;;;;;;5039690;28;20049;-77
2023/08/10 08:30:58;;;;;;;3.20;2.90;;;;;;;;;;5047146;28;20049;-80
2023/08/10 08:33:25;;;;;;;3.10;2.90;;;;;;;;;;5047816;28;20045;-77
2023/08/10 08:35:53;;;;;;;2.90;2.70;;;;;;;;;;5028897;28;20576;-79
2023/08/10 08:38:20;;;;;;;2.55;2.45;;;;;;;;;;5027298;28;20063;-80
2023/08/10 08:40:48;;;;;;;2.60;2.50;;;;;;;;;;5044606;28;20135;-78
2023/08/10 08:43:16;;;;;;;2.50;2.30;;;;;;;;;;5047486;28;20513;-76
2023/08/10 08:45:44;;;;;;;3.00;2.70;;;;;;;;;;5043594;28;20402;-76
2023/08/10 08:48:14;;;;;;;2.30;1.90;;;;;;;;;;5047351;28;20049;-76
2023/08/10 08:50:43;;;;;;;2.20;2.10;;;;;;;;;;5044927;28;20037;-76
2023/08/10 08:53:12;;;;;;;2.40;2.30;;;;;;;;;;5046372;28;20044;-78
2023/08/10 08:55:40;;;;;;;2.47;2.38;;;;;;;;;;5047071;28;20049;-79
2023/08/10 08:58:08;;;;;;;2.53;2.15;;;;;;;;;;5044763;28;20045;-81
2023/08/10 09:00:35;;;;;;;2.42;2.33;;;;;;;;;;5046707;28;20052;-80
2023/08/10 09:03:03;;;;;;;2.63;2.42;;;;;;;;;;5030667;28;20077;-78
2023/08/10 09:05:31;;;;;;;2.65;2.45;;;;;;;;;;5029593;28;20049;-76
2023/08/10 09:07:59;;;;;;;4.80;2.63;;;;;;;;;;5047552;28;20064;-77
2023/08/10 09:10:26;;;;;;;2.85;2.65;;;;;;;;;;5049054;28;20067;-79
2023/08/10 09:12:54;;;;;;;4.38;2.70;;;;;;;;;;5049334;28;20060;-79
2023/08/10 09:15:22;;;;;;;3.08;2.88;;;;;;;;;;5047550;28;20053;-80
2023/08/10 09:17:52;;;;;;;4.30;2.60;;;;;;;;;;5045556;28;20126;-78
2023/08/10 09:20:21;;;;;;;2.08;1.98;;;;;;;;;;5046620;28;20063;-81
2023/08/10 09:22:52;;;;;;;1.98;1.88;;;;;;;;;;5046423;28;20084;-80
2023/08/10 09:25:20;;;;;;;;;;;;;;;;;;5046225;28;20044;-78
2023/08/10 09:27:49;;;;;;;3.28;2.00;;;;;;;;;;5046514;28;19925;-80
2023/08/10 09:30:17;;;;;;;1.90;1.80;;;;;;;;;;5037531;28;20052;-83
2023/08/10 09:32:45;;;;;;;1.77;1.67;;;;;;;;;;5028548;28;20049;-77
2023/08/10 09:35:16;;;;;;;1.95;1.85;;;;;;;;;;5045422;28;20135;-77
2023/08/10 09:37:44;;;;;;;2.28;2.08;;;;;;;;;;5045824;28;20457;-81
2023/08/10 09:40:15;;;;;;;2.20;2.10;;;;;;;;;;5037198;28;20049;-80
2023/08/10 09:42:42;;;;;;;4.43;2.70;;;;;;;;;;5045307;28;20140;-78
2023/08/10 09:45:11;;;;;;;2.17;2.08;;;;;;;;;;5044424;28;20083;-83
2023/08/10 09:47:42;;;;;;;2.13;2.00;;;;;;;;;;5045930;28;20040;-83
2023/08/10 09:50:12;;;;;;;4.07;1.92;;;;;;;;;;5046341;28;20044;-81
2023/08/10 09:52:40;;;;;;;1.80;1.70;;;;;;;;;;5038025;28;20060;-77
2023/08/10 09:55:08;;;;;;;2.85;1.70;;;;;;;;;;5027807;28;20490;-77
2023/08/10 09:57:44;;;;;;;1.73;1.63;;;;;;;;;;5036221;28;20575;-78
2023/08/10 10:00:21;;;;;;;2.00;1.90;;;;;;;;;;5043193;28;20479;-77
2023/08/10 10:02:48;;;;;;;1.70;1.60;;;;;;;;;;5046228;28;20069;-78
2023/08/10 10:05:18;;;;;;;1.70;1.60;;;;;;;;;;5038833;28;20583;-77
2023/08/10 10:08:04;;;;;;;1.42;1.42;;;;;;;;;;5038551;28;20128;-78
2023/08/10 10:10:33;;;;;;;2.00;1.90;;;;;;;;;;5040733;28;20052;-77
2023/08/10 10:13:01;;;;;;;2.47;1.73;;;;;;;;;;5046082;28;20128;-78
2023/08/10 10:15:29;;;;;;;1.75;1.65;;;;;;;;;;5045782;28;20048;-81
2023/08/10 10:17:56;;;;;;;1.70;1.45;;;;;;;;;;5045509;28;20528;-80
2023/08/10 10:20:24;;;;;;;1.60;1.50;;;;;;;;;;5042227;28;20421;-81
2023/08/10 10:22:51;;;;;;;1.50;1.42;;;;;;;;;;5045285;28;20175;-78
2023/08/10 10:25:20;;;;;;;3.15;1.50;;;;;;;;;;5045456;28;20411;-78
2023/08/10 10:27:49;;;;;;;1.80;1.70;;;;;;;;;;5045665;28;20073;-80
2023/08/10 10:30:17;;;;;;;2.05;1.80;;;;;;;;;;5031399;28;20053;-82
2023/08/10 10:32:46;;;;;;;1.60;1.48;;;;;;;;;;5015130;28;21159;-81
2023/08/10 10:35:24;;;;;;;3.08;1.67;;;;;;;;;;5050424;28;20057;-82
2023/08/10 10:37:58;;;;;;;2.40;1.50;;;;;;;;;;5042789;28;20135;-78
2023/08/10 10:40:27;;;;;;;1.40;1.30;;;;;;;;;;5042456;28;20494;-77
2023/08/10 10:43:15;;;;;;;1.50;1.40;;;;;;;;;;5050975;28;20048;-77
2023/08/10 10:45:44;;;;;;;2.05;1.80;;;;;;;;;;5047155;28;20127;-79
2023/08/10 10:48:14;;;;;;;1.50;1.40;;;;;;;;;;5048634;28;20110;-78
2023/08/10 10:50:43;;;;;;;1.27;1.27;;;;;;;;;;5047866;28;20067;-80
2023/08/10 10:53:12;;;;;;;1.70;1.60;;;;;;;;;;5036162;28;20145;-79
2023/08/10 10:55:44;;;;;;;1.40;1.30;;;;;;;;;;5054653;28;20052;-81
2023/08/10 10:58:13;;;;;;;1.27;1.17;;;;;;;;;;5055954;28;20354;-77
2023/08/10 11:00:41;;;;;;;1.33;1.33;;;;;;;;;;5049717;28;20103;-81
2023/08/10 11:03:10;;;;;;;1.40;1.40;;;;;;;;;;5028243;28;20506;-79
2023/08/10 11:05:38;;;;;;;1.30;1.30;;;;;;;;;;5050391;28;20061;-78
2023/08/10 11:08:06;;;;;;;1.17;1.17;;;;;;;;;;5042174;28;20060;-77
2023/08/10 11:10:37;;;;;;;1.60;1.40;;;;;;;;;;5049932;28;20553;-76
2023/08/10 11:13:05;;;;;;;1.33;1.30;;;;;;;;;;5049712;28;21323;-77
2023/08/10 11:15:33;;;;;;;1.23;1.13;;;;;;;;;;5023318;28;20545;-78
2023/08/10 11:18:03;;;;;;;1.10;1.10;;;;;;;;;;5049167;28;20064;-78
2023/08/10 11:20:31;;;;;;;1.02;1.02;;;;;;;;;;5038691;28;20041;-78
2023/08/10 11:22:59;;;;;;;1.50;1.40;;;;;;;;;;5037955;28;20103;-78
2023/08/10 11:25:31;;;;;;;1.10;1.10;;;;;;;;;;5047682;28;20126;-79
2023/08/10 11:28:00;;;;;;;1.10;1.00;;;;;;;;;;5048608;28;20059;-80
2023/08/10 11:30:27;;;;;;;1.20;1.10;;;;;;;;;;5046926;28;20127;-79
2023/08/10 11:32:55;;;;;;;2.15;1.20;;;;;;;;;;5043833;28;20057;-78
2023/08/10 11:35:26;;;;;;;1.35;1.25;;;;;;;;;;5046113;28;20151;-81
2023/08/10 11:37:53;;;;;;;1.02;1.00;;;;;;;;;;5050684;28;20053;-78
2023/08/10 11:40:23;;;;;;;1.30;1.20;;;;;;;;;;5023864;28;20049;-80
2023/08/10 11:43:11;;;;;;;2.05;0.93;;;;;;;;;;5050771;28;20506;-78
2023/08/10 11:45:39;;;;;;;1.00;0.90;;;;;;;;;;5030466;28;20380;-81
2023/08/10 11:48:09;;;;;;;1.23;1.23;;;;;;;;;;5046376;28;20041;-81
2023/08/10 11:50:40;;;;;;;1.67;1.00;;;;;;;;;;5032597;28;20116;-78
2023/08/10 11:53:10;;;;;;;1.38;0.90;;;;;;;;;;5049873;28;20045;-82
2023/08/10 11:55:48;;;;;;;1.05;1.00;;;;;;;;;;5051445;28;20499;-79
2023/08/10 11:58:16;;;;;;;1.00;1.00;;;;;;;;;;5036180;28;20042;-80
2023/08/10 12:00:49;;;;;;;6.18;1.10;;;;;;;;;;5049391;28;20048;-78
2023/08/10 12:03:26;;;;;;;0.93;0.93;;;;;;;;;;5046004;28;20044;-79
2023/08/10 12:06:06;;;;;;;0.90;0.90;;;;;;;;;;5047003;28;20514;-81
2023/08/10 12:08:38;;;;;;;1.35;1.10;;;;;;;;;;5051332;28;20506;-78
2023/08/10 12:11:08;;;;;;;0.90;0.90;;;;;;;;;;5053330;28;20513;-78
2023/08/10 12:13:49;;;;;;;0.90;0.90;;;;;;;;;;5047694;28;20049;-81
2023/08/10 12:16:18;;;;;;;1.27;0.90;;;;;;;;;;5055903;28;20064;-78
2023/08/10 12:18:45;;;;;;;0.93;0.93;;;;;;;;;;5053463;28;20049;-81
2023/08/10 12:21:13;;;;;;;1.40;1.30;;;;;;;;;;5054224;28;20060;-80
2023/08/10 12:23:41;;;;;;;0.90;0.90;;;;;;;;;;5053940;28;20052;-78
2023/08/10 12:26:11;;;;;;;1.05;0.93;;;;;;;;;;5051880;28;20317;-78
2023/08/10 12:28:39;;;;;;;0.80;0.80;;;;;;;;;;5052265;28;20049;-77
2023/08/10 12:31:07;;;;;;;1.00;1.00;;;;;;;;;;5042969;28;20053;-78
2023/08/10 12:33:34;;;;;;;0.88;0.88;;;;;;;;;;5053436;28;20053;-77
2023/08/10 12:36:02;;;;;;;1.58;1.20;;;;;;;;;;5052038;28;20075;-80
2023/08/10 12:38:30;;;;;;;1.00;1.00;;;;;;;;;;5027460;28;20049;-81
2023/08/10 12:40:58;;;;;;;1.17;0.93;;;;;;;;;;5053490;28;20060;-78
2023/08/10 12:43:25;;;;;;;1.75;0.90;;;;;;;;;;5054926;28;20061;-79
2023/08/10 12:45:53;;;;;;;1.25;0.80;;;;;;;;;;5047817;28;20056;-78
2023/08/10 12:48:22;;;;;;;1.00;1.00;;;;;;;;;;5044420;28;20071;-78
2023/08/10 12:50:50;;;;;;;1.00;0.80;;;;;;;;;;5039265;28;20051;-78
2023/08/10 12:53:17;;;;;;;0.80;0.80;;;;;;;;;;5022576;28;20041;-78
2023/08/10 12:55:45;;;;;;;0.98;0.98;;;;;;;;;;5043994;28;20065;-77
2023/08/10 12:58:16;;;;;;;0.90;0.90;;;;;;;;;;5108994;22;20317;-80
2023/08/10 13:00:45;;;;;;;0.90;0.80;;;;;;;;;;5046772;28;20586;-75
2023/08/10 13:03:14;;;;;;;1.02;0.90;;;;;;;;;;5025254;28;20360;-75
2023/08/10 13:05:42;;;;;;;1.67;0.82;;;;;;;;;;5035514;28;20339;-75
2023/08/10 13:08:10;;;;;;;1.50;0.90;;;;;;;;;;5046596;28;20394;-75
2023/08/10 13:10:39;;;;;;;1.40;1.30;;;;;;;;;;5045869;28;20049;-76
2023/08/10 13:13:07;;;;;;;2.60;0.80;;;;;;;;;;5046488;28;20086;-75
2023/08/10 13:15:35;;;;;;;2.25;0.90;;;;;;;;;;5046046;28;20138;-76
2023/08/10 13:18:04;;;;;;;0.80;0.80;;;;;;;;;;5046382;28;20052;-76
2023/08/10 13:20:34;;;;;;;1.00;0.80;;;;;;;;;;5046547;28;20259;-75
2023/08/10 13:23:02;;;;;;;0.70;0.70;;;;;;;;;;5047233;28;20045;-75
2023/08/10 13:25:31;;;;;;;1.10;0.98;;;;;;;;;;5046984;28;20052;-75
2023/08/10 13:27:59;;;;;;;0.88;0.70;;;;;;;;;;5045470;28;20132;-75
2023/08/10 13:30:27;;;;;;;0.70;0.70;;;;;;;;;;5044495;28;20425;-76
2023/08/10 13:32:55;;;;;;;1.42;0.80;;;;;;;;;;5046250;28;20098;-75
2023/08/10 13:35:22;;;;;;;0.75;0.75;;;;;;;;;;5046249;28;20052;-77
2023/08/10 13:37:50;;;;;;;0.80;0.80;;;;;;;;;;5046532;28;20140;-76
2023/08/10 13:40:17;;;;;;;0.80;0.80;;;;;;;;;;5046293;28;20094;-75
2023/08/10 13:42:44;;;;;;;1.05;1.00;;;;;;;;;;5046468;28;20060;-77
2023/08/10 13:45:12;;;;;;;1.10;1.05;;;;;;;;;;5046551;28;20132;-76
2023/08/10 13:47:39;;;;;;;0.90;0.90;;;;;;;;;;5046161;28;20053;-76
2023/08/10 13:50:07;;;;;;;0.80;0.80;;;;;;;;;;5046106;28;20487;-78
2023/08/10 13:52:35;;;;;;;2.90;1.00;;;;;;;;;;5046307;28;20441;-77
2023/08/10 13:55:03;;;;;;;0.68;0.68;;;;;;;;;;5045180;28;20057;-76
2023/08/10 13:57:30;;;;;;;0.63;0.63;;;;;;;;;;5046237;28;20049;-76
2023/08/10 13:59:58;;;;;;;0.73;0.73;;;;;;;;;;5045641;28;20080;-77
2023/08/10 14:02:26;;;;;;;1.98;0.95;;;;;;;;;;5046536;28;20056;-76
2023/08/10 14:04:54;;;;;;;0.70;0.70;;;;;;;;;;5045280;28;20136;-76
2023/08/10 14:07:22;;;;;;;0.82;0.80;;;;;;;;;;5046240;28;20106;-79
2023/08/10 14:09:50;;;;;;;0.80;0.80;;;;;;;;;;5048153;28;20041;-76
2023/08/10 14:12:18;;;;;;;0.70;0.70;;;;;;;;;;5049411;28;20040;-78
2023/08/10 14:14:45;;;;;;;0.70;0.70;;;;;;;;;;5049326;28;20045;-76
2023/08/10 14:17:12;;;;;;;0.82;0.82;;;;;;;;;;5049772;28;20045;-76
2023/08/10 14:19:40;;;;;;;1.20;0.70;;;;;;;;;;5049077;28;20126;-78
2023/08/10 14:22:07;;;;;;;2.80;0.80;;;;;;;;;;5049715;28;20052;-76
2023/08/10 14:24:35;;;;;;;1.23;0.77;;;;;;;;;;5048251;28;20542;-77
2023/08/10 14:27:03;;;;;;;1.90;0.70;;;;;;;;;;5049920;28;20529;-76
2023/08/10 14:29:31;;;;;;;1.17;0.90;;;;;;;;;;5049936;28;20060;-77
2023/08/10 14:32:01;;;;;;;1.98;0.77;;;;;;;;;;5042059;28;20045;-76
2023/08/10 14:34:30;;;;;;;0.70;0.70;;;;;;;;;;5045923;28;20036;-77
2023/08/10 14:36:58;;;;;;;0.90;0.70;;;;;;;;;;5045583;28;20053;-76
2023/08/10 14:39:27;;;;;;;1.50;0.90;;;;;;;;;;5048767;28;20129;-76
2023/08/10 14:41:55;;;;;;;0.70;0.70;;;;;;;;;;5047839;28;20048;-76
2023/08/10 14:44:22;;;;;;;0.60;0.60;;;;;;;;;;5044066;28;20059;-76
2023/08/10 14:46:49;;;;;;;0.98;0.60;;;;;;;;;;5049712;28;20088;-77
2023/08/10 14:49:17;;;;;;;0.73;0.73;;;;;;;;;;5050083;28;20494;-76
2023/08/10 14:51:44;;;;;;;0.90;0.80;;;;;;;;;;5047452;28;20561;-75
2023/08/10 14:54:12;;;;;;;0.80;0.80;;;;;;;;;;5049226;28;20049;-76
2023/08/10 14:56:39;;;;;;;0.82;0.82;;;;;;;;;;5049713;28;20049;-76
2023/08/10 14:59:07;;;;;;;0.70;0.70;;;;;;;;;;5049818;28;20493;-76
2023/08/10 15:01:34;;;;;;;1.15;1.05;;;;;;;;;;5046186;28;20057;-77